Time;durP1;ratioP1;P1;durP2;ratioP2;P2;SDS_P1;SDS_P2;PMS_P1;PMS_P2;Temp;Humidity;BMP_temperature;BMP_pressure;BME280_temperature;BME280_humidity;BME280_pressure;Samples;Min_cycle;Max_cycle;Signal;HPM_P1;HPM_P2
2022/11/12 00:01:47;;;;;;;0.10;0.10;;;6.90;99.90;;;;;;5016384;28;20572;-85
2022/11/12 00:04:14;;;;;;;0.10;0.10;;;;;;;;;;5014416;28;20034;-86
2022/11/12 00:06:42;;;;;;;0.10;0.10;;;;;;;;;;5010819;28;20069;-85
2022/11/12 00:09:09;;;;;;;0.10;0.10;;;;;;;;;;5032824;28;20135;-86
2022/11/12 00:11:36;;;;;;;0.10;0.10;;;;;;;;;;5030615;28;20042;-86
2022/11/12 00:14:03;;;;;;;0.10;0.10;;;6.70;99.90;;;;;;4994245;28;20041;-86
2022/11/12 00:16:31;;;;;;;0.10;0.10;;;6.60;99.90;;;;;;5011079;28;20141;-86
2022/11/12 00:18:58;;;;;;;0.10;0.10;;;6.60;99.90;;;;;;5015425;28;20424;-86
2022/11/12 00:21:25;;;;;;;0.10;0.10;;;;;;;;;;5015501;28;20092;-86
2022/11/12 00:23:52;;;;;;;0.10;0.10;;;6.40;99.90;;;;;;5018085;28;20124;-85
2022/11/12 00:26:19;;;;;;;0.10;0.10;;;6.40;99.90;;;;;;5025717;28;20099;-86
2022/11/12 00:28:46;;;;;;;0.10;0.10;;;7.50;99.90;;;;;;4995011;28;20077;-86
2022/11/12 00:31:12;;;;;;;0.10;0.10;;;6.30;99.90;;;;;;5013474;28;20080;-84
2022/11/12 00:33:41;;;;;;;0.10;0.10;;;6.30;99.90;;;;;;5011322;28;20077;-85
2022/11/12 00:36:09;;;;;;;0.10;0.10;;;6.30;99.90;;;;;;5010620;28;20076;-87
2022/11/12 00:38:37;;;;;;;0.10;0.10;;;;;;;;;;5031654;28;20560;-87
2022/11/12 00:41:04;;;;;;;0.10;0.10;;;6.30;99.90;;;;;;5033892;28;20080;-85
2022/11/12 00:43:31;;;;;;;0.10;0.10;;;;;;;;;;5003144;28;20124;-86
2022/11/12 00:45:58;;;;;;;0.10;0.10;;;6.10;99.90;;;;;;4996042;28;20084;-85
2022/11/12 00:48:25;;;;;;;0.10;0.10;;;;;;;;;;5013344;28;20073;-85
2022/11/12 00:51:00;;;;;;;0.10;0.10;;;6.00;99.90;;;;;;5027643;28;20099;-88
2022/11/12 00:53:27;;;;;;;0.10;0.10;;;5.90;99.90;;;;;;5013458;28;20076;-87
2022/11/12 00:55:59;;;;;;;0.10;0.10;;;5.90;99.90;;;;;;5012075;28;20514;-85
2022/11/12 00:58:29;;;;;;;0.10;0.10;;;5.90;99.90;;;;;;5014778;28;20507;-85
2022/11/12 01:00:56;;;;;;;0.10;0.10;;;5.80;99.90;;;;;;5010128;28;20085;-86
2022/11/12 01:03:23;;;;;;;0.10;0.10;;;;;;;;;;5027037;28;20061;-86
2022/11/12 01:05:50;;;;;;;0.10;0.10;;;5.80;99.90;;;;;;5024087;28;20480;-87
2022/11/12 01:08:18;;;;;;;0.10;0.10;;;5.80;99.90;;;;;;5009697;28;20080;-89
2022/11/12 01:10:45;;;;;;;0.10;0.10;;;5.70;99.90;;;;;;5014496;28;20074;-89
2022/11/12 01:13:12;;;;;;;0.10;0.10;;;5.70;99.90;;;;;;5033423;28;20075;-87
2022/11/12 01:15:40;;;;;;;0.00;0.00;;;5.70;99.90;;;;;;5010730;28;20502;-88
2022/11/12 01:18:07;;;;;;;0.10;0.10;;;;;;;;;;5011651;28;20049;-87
2022/11/12 01:20:36;;;;;;;0.10;0.10;;;5.80;99.90;;;;;;5029139;28;20041;-87
2022/11/12 01:23:03;;;;;;;0.10;0.10;;;8.30;99.90;;;;;;5026037;28;20045;-86
2022/11/12 01:25:32;;;;;;;0.10;0.10;;;5.80;99.90;;;;;;5014516;28;20123;-89
2022/11/12 01:27:58;;;;;;;0.10;0.10;;;5.80;99.90;;;;;;5011661;28;20547;-87
2022/11/12 01:30:25;;;;;;;0.10;0.10;;;5.80;99.90;;;;;;5012372;28;20076;-89
2022/11/12 01:32:52;;;;;;;0.10;0.10;;;5.70;99.90;;;;;;5026939;28;20072;-87
2022/11/12 01:35:19;;;;;;;0.10;0.10;;;5.70;99.90;;;;;;5026464;28;20096;-87
2022/11/12 01:37:46;;;;;;;0.10;0.10;;;;;;;;;;5029538;28;20076;-85
2022/11/12 01:40:15;;;;;;;0.10;0.10;;;5.70;99.90;;;;;;5009665;28;20124;-85
2022/11/12 01:42:50;;;;;;;0.10;0.10;;;5.60;99.90;;;;;;5027596;28;20069;-85
2022/11/12 01:45:18;;;;;;;0.10;0.10;;;;;;;;;;5028442;28;20544;-88
2022/11/12 01:47:48;;;;;;;0.10;0.10;;;5.60;99.90;;;;;;5011577;28;20044;-87
2022/11/12 01:50:20;;;;;;;0.10;0.10;;;5.60;99.90;;;;;;5025598;28;20057;-91
2022/11/12 01:52:50;;;;;;;0.10;0.10;;;5.60;99.90;;;;;;5009800;28;20472;-88
2022/11/12 01:55:21;;;;;;;0.10;0.10;;;5.60;99.90;;;;;;5027337;28;20408;-88
2022/11/12 01:57:52;;;;;;;0.10;0.10;;;5.60;99.90;;;;;;5013379;28;20129;-88
2022/11/12 02:00:19;;;;;;;0.10;0.10;;;5.50;99.90;;;;;;5005259;28;20128;-88
2022/11/12 02:02:51;;;;;;;0.10;0.10;;;5.50;99.90;;;;;;5014072;28;20044;-86
2022/11/12 02:05:20;;;;;;;0.10;0.10;;;5.50;99.90;;;;;;5010844;28;20859;-84
2022/11/12 02:07:48;;;;;;;0.10;0.10;;;5.50;99.90;;;;;;5027223;28;20489;-83
2022/11/12 02:10:16;;;;;;;0.10;0.10;;;;;;;;;;5023777;28;20386;-86
2022/11/12 02:15:30;;;;;;;0.10;0.10;;;5.80;99.90;;;;;;5005086;28;20080;-82
2022/11/12 02:17:57;;;;;;;0.10;0.10;;;5.40;99.90;;;;;;5015177;28;20076;-86
2022/11/12 02:20:25;;;;;;;0.10;0.10;;;;;;;;;;4997350;28;20076;-85
2022/11/12 02:22:53;;;;;;;0.10;0.10;;;5.40;99.90;;;;;;5010973;28;20046;-84
2022/11/12 02:25:23;;;;;;;0.10;0.10;;;5.30;99.90;;;;;;5015116;28;20073;-85
2022/11/12 02:27:50;;;;;;;0.10;0.10;;;;;;;;;;5009108;28;20045;-88
2022/11/12 02:30:18;;;;;;;0.10;0.10;;;;;;;;;;5013235;28;20061;-87
2022/11/12 02:32:45;;;;;;;0.10;0.10;;;;;;;;;;5028593;28;20054;-87
2022/11/12 02:35:12;;;;;;;0.10;0.10;;;5.20;99.90;;;;;;5010388;28;20531;-89
2022/11/12 02:37:39;;;;;;;0.10;0.10;;;;;;;;;;4995216;28;20081;-88
2022/11/12 02:40:08;;;;;;;0.10;0.10;;;5.20;99.90;;;;;;5027986;28;20045;-88
2022/11/12 02:42:35;;;;;;;0.10;0.10;;;5.20;99.90;;;;;;5011337;28;20139;-87
2022/11/12 02:45:03;;;;;;;0.10;0.10;;;5.10;99.90;;;;;;4990563;28;20140;-86
2022/11/12 02:47:30;;;;;;;0.10;0.10;;;;;;;;;;5021622;28;20053;-87
2022/11/12 02:49:57;;;;;;;0.10;0.10;;;;;;;;;;5022382;28;20058;-88
2022/11/12 02:52:24;;;;;;;0.10;0.10;;;5.10;99.90;;;;;;5030094;28;20084;-85
2022/11/12 02:54:51;;;;;;;0.10;0.10;;;;;;;;;;5027584;28;20042;-88
2022/11/12 02:57:19;;;;;;;0.10;0.10;;;5.00;99.90;;;;;;5008758;28;20069;-89
2022/11/12 02:59:47;;;;;;;0.10;0.10;;;;;;;;;;5011161;28;20049;-84
2022/11/12 03:02:14;;;;;;;0.10;0.10;;;;;;;;;;5014391;28;20137;-89
2022/11/12 03:04:41;;;;;;;0.10;0.10;;;;;;;;;;5005851;28;20124;-85
2022/11/12 03:07:15;;;;;;;0.10;0.10;;;4.90;99.90;;;;;;5008953;28;20045;-85
2022/11/12 03:09:42;;;;;;;0.10;0.10;;;4.90;99.90;;;;;;5016438;28;20112;-85
2022/11/12 03:12:08;;;;;;;0.10;0.10;;;4.90;99.90;;;;;;5010042;28;20057;-85
2022/11/12 03:14:37;;;;;;;0.10;0.10;;;4.90;99.90;;;;;;4996597;28;20518;-86
2022/11/12 03:17:04;;;;;;;0.10;0.10;;;;;;;;;;5014065;28;20088;-85
2022/11/12 03:19:31;;;;;;;0.10;0.10;;;;;;;;;;5012566;28;20161;-87
2022/11/12 03:21:58;;;;;;;0.20;0.20;;;;;;;;;;4994850;28;20136;-86
2022/11/12 03:24:27;;;;;;;0.10;0.10;;;;;;;;;;5030304;28;20045;-86
2022/11/12 03:26:53;;;;;;;0.10;0.10;;;4.80;99.90;;;;;;5025333;28;20049;-86
2022/11/12 03:29:21;;;;;;;0.10;0.10;;;;;;;;;;5012488;28;20397;-86
2022/11/12 03:31:49;;;;;;;0.10;0.10;;;4.70;99.90;;;;;;5010142;28;20054;-87
2022/11/12 03:34:16;;;;;;;0.10;0.10;;;;;;;;;;5010092;28;20534;-86
2022/11/12 03:36:43;;;;;;;0.10;0.10;;;4.70;99.90;;;;;;5010342;28;20064;-86
2022/11/12 03:39:10;;;;;;;0.10;0.10;;;4.70;99.90;;;;;;5009355;28;20048;-87
2022/11/12 03:41:36;;;;;;;0.10;0.10;;;4.60;99.90;;;;;;5002038;28;20049;-89
2022/11/12 03:44:04;;;;;;;0.10;0.10;;;;;;;;;;4993371;28;20389;-87
2022/11/12 03:46:30;;;;;;;0.10;0.10;;;4.70;99.90;;;;;;5008623;28;20053;-87
2022/11/12 03:49:01;;;;;;;0.10;0.10;;;4.70;99.90;;;;;;4994638;28;20518;-88
2022/11/12 03:51:28;;;;;;;0.10;0.10;;;;;;;;;;5031275;28;20073;-86
2022/11/12 03:53:55;;;;;;;0.10;0.10;;;;;;;;;;5005508;28;20038;-86
2022/11/12 03:56:22;;;;;;;0.10;0.10;;;;;;;;;;5008255;28;20076;-85
2022/11/12 03:58:49;;;;;;;0.10;0.10;;;;;;;;;;5014706;28;20132;-86
2022/11/12 04:01:16;;;;;;;0.10;0.10;;;;;;;;;;5028640;28;20053;-86
2022/11/12 04:03:43;;;;;;;0.10;0.10;;;4.60;99.90;;;;;;5011956;28;20034;-87
2022/11/12 04:08:57;;;;;;;0.10;0.10;;;;;;;;;;5035221;28;20500;-85
2022/11/12 04:11:24;;;;;;;0.10;0.10;;;4.60;99.90;;;;;;5020553;28;20511;-85
2022/11/12 04:13:51;;;;;;;0.03;0.03;;;;;;;;;;5023748;28;20085;-85
2022/11/12 04:22:00;;;;;;;0.10;0.10;;;4.40;99.90;;;;;;5029682;28;20117;-86
2022/11/12 04:27:17;;;;;;;0.10;0.10;;;4.40;99.90;;;;;;5032849;28;20052;-86
2022/11/12 04:32:33;;;;;;;0.10;0.10;;;4.40;99.90;;;;;;5024375;28;20042;-85
2022/11/12 04:35:00;;;;;;;0.10;0.10;;;;;;;;;;5034335;28;20068;-86
2022/11/12 04:37:43;;;;;;;0.10;0.10;;;4.30;99.90;;;;;;5030520;28;20056;-85
2022/11/12 04:45:46;;;;;;;0.10;0.10;;;4.30;99.90;;;;;;5011525;28;20414;-86
2022/11/12 04:48:13;;;;;;;0.10;0.10;;;5.30;99.90;;;;;;4994687;28;20041;-88
2022/11/12 04:50:41;;;;;;;0.00;0.00;;;4.30;99.90;;;;;;5010821;28;20050;-86
2022/11/12 04:53:09;;;;;;;0.10;0.10;;;4.20;99.90;;;;;;5013237;28;20051;-87
2022/11/12 04:55:36;;;;;;;0.10;0.10;;;;;;;;;;5014127;28;20124;-87
2022/11/12 04:58:03;;;;;;;0.10;0.10;;;4.30;99.90;;;;;;5031143;28;20136;-86
2022/11/12 05:00:30;;;;;;;0.10;0.10;;;4.30;99.90;;;;;;5012506;28;20068;-87
2022/11/12 05:02:57;;;;;;;0.10;0.10;;;4.40;99.90;;;;;;5011727;28;20073;-87
2022/11/12 05:05:24;;;;;;;0.10;0.10;;;;;;;;;;5028516;28;20041;-88
2022/11/12 05:07:59;;;;;;;0.10;0.10;;;4.40;99.90;;;;;;5011523;28;20041;-87
2022/11/12 05:10:27;;;;;;;0.10;0.10;;;4.30;99.90;;;;;;5029849;28;20514;-86
2022/11/12 05:12:54;;;;;;;0.10;0.10;;;4.40;99.90;;;;;;4997830;28;20075;-87
2022/11/12 05:15:21;;;;;;;0.10;0.10;;;4.40;99.90;;;;;;5010186;28;20049;-86
2022/11/12 05:17:49;;;;;;;0.10;0.10;;;;;;;;;;5012958;28;20042;-88
2022/11/12 05:20:16;;;;;;;0.10;0.10;;;;;;;;;;5033021;28;20042;-86
2022/11/12 05:22:43;;;;;;;0.10;0.10;;;;;;;;;;4999863;28;20140;-85
2022/11/12 05:25:31;;;;;;;0.10;0.10;;;4.30;99.90;;;;;;4992433;28;20173;-88
2022/11/12 05:27:59;;;;;;;0.10;0.10;;;;;;;;;;5011629;28;20037;-87
2022/11/12 05:30:25;;;;;;;0.10;0.10;;;4.10;99.90;;;;;;5032701;28;20406;-87
2022/11/12 05:32:52;;;;;;;0.10;0.10;;;;;;;;;;5013797;28;20053;-86
2022/11/12 05:35:20;;;;;;;0.10;0.10;;;;;;;;;;4992816;28;20065;-88
2022/11/12 05:37:46;;;;;;;0.10;0.10;;;4.10;99.90;;;;;;4997518;28;20042;-85
2022/11/12 05:40:13;;;;;;;0.10;0.10;;;4.20;99.90;;;;;;5008661;28;20069;-88
2022/11/12 05:42:43;;;;;;;0.10;0.10;;;4.20;99.90;;;;;;5029933;28;20085;-87
2022/11/12 05:45:10;;;;;;;0.00;0.00;;;;;;;;;;5001548;28;20090;-86
2022/11/12 05:47:37;;;;;;;0.10;0.10;;;;;;;;;;4988437;28;20093;-88
2022/11/12 05:50:05;;;;;;;0.10;0.10;;;4.10;99.90;;;;;;5026319;28;20056;-86
2022/11/12 05:52:32;;;;;;;0.10;0.10;;;4.10;99.90;;;;;;4992561;28;20053;-88
2022/11/12 05:54:59;;;;;;;0.10;0.10;;;;;;;;;;5018945;28;20137;-84
2022/11/12 05:57:26;;;;;;;0.10;0.10;;;;;;;;;;5012993;28;20048;-86
2022/11/12 05:59:55;;;;;;;0.10;0.10;;;4.00;99.90;;;;;;5045292;23;20076;-87
2022/11/12 06:02:22;;;;;;;0.10;0.10;;;;;;;;;;4961683;28;20079;-85
2022/11/12 06:04:49;;;;;;;0.10;0.10;;;;;;;;;;4981626;28;20047;-84
2022/11/12 06:07:16;;;;;;;0.10;0.10;;;;;;;;;;4976956;28;20213;-84
2022/11/12 06:09:43;;;;;;;0.10;0.10;;;4.00;99.90;;;;;;4987408;28;20046;-84
2022/11/12 06:12:10;;;;;;;0.00;0.00;;;;;;;;;;4978670;28;20539;-86
2022/11/12 06:14:37;;;;;;;0.10;0.10;;;;;;;;;;4967667;28;20169;-84
2022/11/12 06:17:06;;;;;;;0.10;0.10;;;4.00;99.90;;;;;;4985924;28;20497;-84
2022/11/12 06:19:33;;;;;;;0.10;0.10;;;;;;;;;;4986953;28;20070;-86
2022/11/12 06:22:00;;;;;;;0.10;0.10;;;;;;;;;;4971237;28;20465;-84
2022/11/12 06:24:29;;;;;;;0.10;0.10;;;;;;;;;;4977325;28;20512;-84
2022/11/12 06:27:01;;;;;;;0.10;0.10;;;4.00;99.90;;;;;;4991829;28;20051;-86
2022/11/12 06:29:29;;;;;;;0.10;0.10;;;;;;;;;;4973171;28;20681;-84
2022/11/12 06:31:56;;;;;;;0.10;0.10;;;;;;;;;;4974866;28;20051;-86
2022/11/12 06:34:24;;;;;;;0.10;0.10;;;4.00;99.90;;;;;;4990353;28;20121;-84
2022/11/12 06:36:51;;;;;;;0.10;0.10;;;4.00;99.90;;;;;;4972179;28;20085;-84
2022/11/12 06:39:19;;;;;;;0.10;0.10;;;;;;;;;;4979936;28;20394;-85
2022/11/12 06:41:46;;;;;;;0.10;0.10;;;4.00;99.90;;;;;;4977044;28;20107;-84
2022/11/12 06:44:13;;;;;;;0.10;0.10;;;;;;;;;;4976498;28;20106;-84
2022/11/12 06:46:48;;;;;;;0.10;0.10;;;;;;;;;;4972254;28;20668;-84
2022/11/12 06:49:15;;;;;;;0.10;0.10;;;;;;;;;;4969515;28;20485;-85
2022/11/12 06:51:43;;;;;;;0.10;0.10;;;4.00;99.90;;;;;;4975019;28;20058;-84
2022/11/12 06:54:11;;;;;;;0.10;0.10;;;;;;;;;;4968332;28;20541;-85
2022/11/12 06:56:38;;;;;;;0.00;0.00;;;;;;;;;;4972304;28;20049;-85
2022/11/12 06:59:05;;;;;;;0.10;0.10;;;;;;;;;;4990509;28;20531;-85
2022/11/12 07:01:32;;;;;;;0.10;0.10;;;;;;;;;;4957660;28;20072;-84
2022/11/12 07:03:59;;;;;;;0.10;0.10;;;;;;;;;;4960145;28;20082;-87
2022/11/12 07:06:27;;;;;;;0.10;0.10;;;;;;;;;;4957160;28;20094;-84
2022/11/12 07:08:55;;;;;;;0.10;0.10;;;4.10;99.90;;;;;;4963283;28;20108;-84
2022/11/12 07:11:22;;;;;;;0.10;0.10;;;;;;;;;;4959644;28;20074;-84
2022/11/12 07:13:49;;;;;;;0.10;0.10;;;;;;;;;;4962137;28;20517;-86
2022/11/12 07:16:17;;;;;;;0.10;0.10;;;;;;;;;;4950852;28;20086;-85
2022/11/12 07:18:45;;;;;;;0.10;0.10;;;;;;;;;;4957880;28;20039;-84
2022/11/12 07:21:14;;;;;;;0.10;0.10;;;4.10;99.90;;;;;;4954540;28;20477;-84
2022/11/12 07:23:41;;;;;;;0.10;0.10;;;;;;;;;;4958486;28;20055;-85
2022/11/12 07:26:13;;;;;;;0.10;0.10;;;4.20;99.90;;;;;;4957507;28;20501;-86
2022/11/12 07:28:40;;;;;;;0.10;0.10;;;;;;;;;;4949248;28;20086;-83
2022/11/12 07:31:10;;;;;;;0.00;0.00;;;4.10;99.90;;;;;;4959353;28;20055;-84
2022/11/12 07:33:37;;;;;;;0.10;0.10;;;;;;;;;;4967483;28;20118;-84
2022/11/12 07:36:06;;;;;;;0.10;0.10;;;4.20;99.90;;;;;;4970102;28;20114;-84
2022/11/12 07:38:36;;;;;;;0.05;0.05;;;4.20;99.90;;;;;;4963081;28;20070;-84
2022/11/12 07:41:05;;;;;;;0.10;0.10;;;4.20;99.90;;;;;;4955446;28;20083;-85
2022/11/12 07:43:35;;;;;;;0.10;0.10;;;5.60;99.90;;;;;;4953917;28;20099;-86
2022/11/12 07:46:04;;;;;;;0.10;0.10;;;4.30;99.90;;;;;;4958019;28;20043;-84
2022/11/12 07:48:36;;;;;;;0.10;0.10;;;;;;;;;;4978514;28;20062;-85
2022/11/12 07:51:05;;;;;;;0.10;0.10;;;4.30;99.90;;;;;;4959134;28;20115;-88
2022/11/12 07:53:33;;;;;;;0.10;0.10;;;4.30;99.90;;;;;;4958714;28;20115;-86
2022/11/12 07:56:01;;;;;;;0.10;0.10;;;4.30;99.90;;;;;;4958233;28;20345;-84
2022/11/12 07:58:30;;;;;;;0.10;0.10;;;4.30;99.90;;;;;;4952205;28;20529;-85
2022/11/12 08:01:07;;;;;;;0.10;0.10;;;4.20;99.90;;;;;;4950228;28;20509;-85
2022/11/12 08:03:34;;;;;;;0.10;0.10;;;;;;;;;;4968295;28;20491;-84
2022/11/12 08:06:01;;;;;;;0.10;0.10;;;;;;;;;;4957138;28;20074;-85
2022/11/12 08:08:28;;;;;;;0.10;0.10;;;;;;;;;;4959684;28;20138;-86
2022/11/12 08:10:56;;;;;;;0.10;0.10;;;;;;;;;;4960231;28;20138;-84
2022/11/12 08:13:23;;;;;;;0.10;0.10;;;;;;;;;;4962138;28;20126;-85
2022/11/12 08:15:51;;;;;;;0.10;0.10;;;;;;;;;;4968289;28;20107;-85
2022/11/12 08:18:19;;;;;;;0.10;0.10;;;4.30;99.90;;;;;;4959427;28;20063;-84
2022/11/12 08:20:46;;;;;;;0.05;0.05;;;;;;;;;;4962816;28;20119;-82
2022/11/12 08:23:14;;;;;;;0.10;0.10;;;;;;;;;;4960614;28;20049;-86
2022/11/12 08:25:41;;;;;;;0.10;0.10;;;;;;;;;;4957737;28;20049;-84
2022/11/12 08:28:08;;;;;;;0.10;0.10;;;;;;;;;;4955906;28;20066;-85
2022/11/12 08:30:35;;;;;;;0.00;0.00;;;;;;;;;;4949841;28;20112;-85
2022/11/12 08:33:04;;;;;;;0.10;0.10;;;4.50;99.90;;;;;;4950672;28;20130;-84
2022/11/12 08:35:32;;;;;;;0.10;0.10;;;4.50;99.90;;;;;;4950212;28;20035;-84
2022/11/12 08:38:00;;;;;;;0.10;0.10;;;;;;;;;;4958865;28;20043;-85
2022/11/12 08:40:28;;;;;;;0.10;0.10;;;4.60;99.90;;;;;;4965543;28;20514;-84
2022/11/12 08:42:58;;;;;;;0.10;0.10;;;4.70;99.90;;;;;;4953630;28;20110;-87
2022/11/12 08:45:25;;;;;;;;;;;4.60;99.90;;;;;;4964230;28;20039;-84
2022/11/12 08:47:57;;;;;;;0.00;0.00;;;5.50;99.90;;;;;;4948602;28;20356;-85
2022/11/12 08:50:24;;;;;;;0.00;0.00;;;4.70;99.90;;;;;;4951353;28;20505;-85
2022/11/12 08:52:52;;;;;;;0.10;0.10;;;4.80;99.90;;;;;;4959439;28;20051;-86
2022/11/12 08:55:19;;;;;;;0.10;0.10;;;;;;;;;;4958343;28;20114;-86
2022/11/12 08:57:46;;;;;;;0.10;0.10;;;;;;;;;;4951499;28;20047;-85
2022/11/12 09:00:14;;;;;;;0.08;0.08;;;4.90;99.90;;;;;;4961061;28;20141;-87
2022/11/12 09:02:41;;;;;;;0.00;0.00;;;;;;;;;;4978730;28;20129;-84
2022/11/12 09:05:08;;;;;;;0.10;0.10;;;;;;;;;;4978972;28;20074;-84
2022/11/12 09:07:36;;;;;;;0.10;0.10;;;;;;;;;;4973391;28;21085;-85
2022/11/12 09:10:17;;;;;;;0.10;0.10;;;5.20;99.90;;;;;;4986735;28;20100;-86
2022/11/12 09:12:49;;;;;;;0.00;0.00;;;5.20;99.90;;;;;;4972823;28;20051;-88
2022/11/12 09:15:17;;;;;;;0.10;0.10;;;;;;;;;;4966881;28;20879;-85
2022/11/12 09:18:06;;;;;;;0.10;0.10;;;5.30;99.90;;;;;;4986305;28;20050;-84
2022/11/12 09:20:33;;;;;;;0.10;0.10;;;;;;;;;;4975030;28;20052;-86
2022/11/12 09:23:03;;;;;;;0.10;0.10;;;5.30;99.90;;;;;;4999788;28;20317;-85
2022/11/12 09:25:32;;;;;;;0.10;0.10;;;5.40;99.90;;;;;;4989425;28;20076;-87
2022/11/12 09:28:06;;;;;;;0.10;0.10;;;5.30;99.90;;;;;;4995474;28;20128;-84
2022/11/12 09:30:33;;;;;;;0.10;0.10;;;;;;;;;;4978117;28;20090;-85
2022/11/12 09:33:00;;;;;;;0.10;0.10;;;5.50;99.90;;;;;;4982714;28;20058;-85
2022/11/12 09:35:27;;;;;;;0.10;0.10;;;;;;;;;;4989197;28;20042;-85
2022/11/12 09:37:54;;;;;;;0.10;0.10;;;;;;;;;;4988109;28;20070;-85
2022/11/12 09:40:26;;;;;;;0.10;0.10;;;5.70;99.90;;;;;;4987354;28;20592;-83
2022/11/12 09:42:54;;;;;;;0.10;0.10;;;5.90;99.90;;;;;;4979704;28;20121;-83
2022/11/12 09:45:27;;;;;;;0.10;0.10;;;5.90;99.90;;;;;;4983697;28;20696;-83
2022/11/12 09:47:58;;;;;;;0.10;0.10;;;5.80;99.90;;;;;;4995418;28;20069;-86
2022/11/12 09:50:29;;;;;;;0.00;0.00;;;6.20;99.90;;;;;;4980557;28;20070;-85
2022/11/12 09:53:01;;;;;;;0.10;0.10;;;6.30;99.90;;;;;;4999647;28;20050;-84
2022/11/12 09:55:32;;;;;;;0.10;0.10;;;6.40;99.90;;;;;;4986778;28;20057;-85
2022/11/12 09:58:00;;;;;;;0.10;0.10;;;6.40;99.90;;;;;;4997020;28;20669;-84
2022/11/12 10:00:28;;;;;;;0.10;0.10;;;10.00;99.90;;;;;;4961814;28;1051074;-83
2022/11/12 10:03:05;;;;;;;0.10;0.10;;;6.70;99.90;;;;;;4984307;28;20164;-86
2022/11/12 10:05:35;;;;;;;0.10;0.10;;;6.60;99.90;;;;;;4985205;28;20114;-83
2022/11/12 10:08:18;;;;;;;0.10;0.10;;;6.90;99.90;;;;;;4997700;28;20121;-85
2022/11/12 10:10:48;;;;;;;0.10;0.10;;;6.80;99.90;;;;;;4986159;28;20077;-86
2022/11/12 10:13:28;;;;;;;0.10;0.10;;;7.00;99.90;;;;;;5001928;28;20054;-85
2022/11/12 10:19:20;;;;;;;0.10;0.10;;;7.30;99.90;;;;;;5000811;28;20069;-84
2022/11/12 10:21:55;;;;;;;0.10;0.10;;;7.30;99.90;;;;;;4988131;28;20038;-84
2022/11/12 10:24:23;;;;;;;0.15;0.15;;;;;;;;;;4984264;28;20535;-83
2022/11/12 10:26:52;;;;;;;0.10;0.10;;;7.70;99.90;;;;;;4983539;28;20070;-85
2022/11/12 10:29:28;;;;;;;0.10;0.10;;;8.00;99.90;;;;;;5004187;28;20050;-84
2022/11/12 10:31:55;;;;;;;0.10;0.10;;;;;;;;;;5003349;28;20177;-84
2022/11/12 10:34:24;;;;;;;0.10;0.10;;;8.00;99.90;;;;;;4993063;28;20076;-84
2022/11/12 10:36:55;;;;;;;0.10;0.10;;;8.10;99.90;;;;;;4986157;28;20046;-84
2022/11/12 10:39:33;;;;;;;0.10;0.10;;;8.20;99.90;;;;;;4989276;28;20050;-83
2022/11/12 10:42:06;;;;;;;0.10;0.10;;;10.80;99.90;;;;;;5001706;28;20053;-83
2022/11/12 10:44:34;;;;;;;0.10;0.10;;;8.30;99.90;;;;;;5004784;28;20057;-84
2022/11/12 10:47:26;;;;;;;0.10;0.10;;;8.40;99.90;;;;;;4982715;28;20125;-84
2022/11/12 10:50:16;;;;;;;0.10;0.10;;;8.70;99.90;;;;;;4986258;28;20093;-84
2022/11/12 10:52:55;;;;;;;0.10;0.10;;;8.90;99.90;;;;;;4979426;28;20165;-86
2022/11/12 10:55:24;;;;;;;0.10;0.10;;;9.00;99.90;;;;;;4982678;28;21088;-84
2022/11/12 10:58:12;;;;;;;0.10;0.10;;;9.10;99.90;;;;;;4997511;28;20118;-84
2022/11/12 11:00:53;;;;;;;0.10;0.10;;;9.10;99.90;;;;;;4984194;28;20066;-85
2022/11/12 11:03:22;;;;;;;0.10;0.10;;;11.60;99.90;;;;;;4983878;28;20035;-84
2022/11/12 11:05:52;;;;;;;0.10;0.10;;;9.30;99.90;;;;;;4976503;28;20125;-84
2022/11/12 11:08:33;;;;;;;;;;;10.70;99.90;;;;;;4979401;28;20129;-83
2022/11/12 11:11:17;;;;;;;0.10;0.10;;;9.40;99.90;;;;;;4974500;28;19964;-86
2022/11/12 11:13:44;;;;;;;0.10;0.10;;;9.50;99.90;;;;;;4987774;28;20074;-83
2022/11/12 11:16:14;;;;;;;0.00;0.00;;;9.60;99.90;;;;;;4972637;28;20065;-82
2022/11/12 11:18:45;;;;;;;0.10;0.10;;;10.30;99.90;;;;;;4973033;28;20057;-83
2022/11/12 11:21:25;;;;;;;0.05;0.05;;;9.90;99.90;;;;;;4993275;28;20097;-83
2022/11/12 11:23:56;;;;;;;0.10;0.10;;;10.00;99.90;;;;;;4994322;28;20038;-83
2022/11/12 11:26:32;;;;;;;0.10;0.10;;;10.00;99.90;;;;;;4997657;28;20049;-85
2022/11/12 11:29:15;;;;;;;0.10;0.10;;;9.90;99.90;;;;;;4995644;28;20054;-83
2022/11/12 11:31:52;;;;;;;0.10;0.10;;;10.00;99.90;;;;;;4989241;28;20047;-84
2022/11/12 11:34:28;;;;;;;0.10;0.10;;;10.10;99.90;;;;;;4972975;28;20507;-84
2022/11/12 11:37:03;;;;;;;0.00;0.00;;;11.00;99.90;;;;;;4996727;28;20039;-83
2022/11/12 11:39:40;;;;;;;0.10;0.10;;;10.20;99.90;;;;;;4997312;28;20106;-83
2022/11/12 11:42:21;;;;;;;0.10;0.10;;;10.30;99.90;;;;;;4994775;28;20061;-84
2022/11/12 11:44:57;;;;;;;0.10;0.10;;;10.50;99.90;;;;;;4979185;28;20073;-84
2022/11/12 11:47:37;;;;;;;0.10;0.10;;;10.60;99.90;;;;;;4979490;28;20656;-84
2022/11/12 11:50:26;;;;;;;0.10;0.10;;;10.60;99.90;;;;;;4972267;28;20061;-85
2022/11/12 11:53:10;;;;;;;0.10;0.10;;;10.70;99.90;;;;;;4983673;28;20101;-83
2022/11/12 11:55:52;;;;;;;0.10;0.10;;;10.70;99.90;;;;;;4989938;28;20089;-85
2022/11/12 11:58:58;;;;;;;0.00;0.00;;;10.80;99.90;;;;;;4983091;28;20050;-85
2022/11/12 12:01:33;;;;;;;0.10;0.10;;;10.80;99.90;;;;;;4949002;28;20141;-86
2022/11/12 12:04:22;;;;;;;0.00;0.00;;;10.90;99.90;;;;;;4999040;28;20497;-85
2022/11/12 12:07:08;;;;;;;0.00;0.00;;;11.00;99.90;;;;;;4977090;28;21756;-86
2022/11/12 12:09:42;;;;;;;0.10;0.10;;;11.10;99.90;;;;;;4978560;28;20555;-85
2022/11/12 12:12:23;;;;;;;0.08;0.08;;;11.10;99.90;;;;;;4986111;28;20489;-85
2022/11/12 12:36:36;;;;;;;0.00;0.00;;;11.40;99.90;;;;;;5009085;28;20395;-88
2022/11/12 12:39:16;;;;;;;0.00;0.00;;;11.30;99.90;;;;;;4996230;28;20109;-85
2022/11/12 12:41:50;;;;;;;0.00;0.00;;;11.40;99.90;;;;;;4995665;28;20132;-86
2022/11/12 12:44:58;;;;;;;0.10;0.10;;;;;;;;;;4989624;28;20085;-87
2022/11/12 12:47:11;;;;;;;0.00;0.00;;;11.30;99.90;;;;;;5057630;23;20049;-86
2022/11/12 12:49:39;;;;;;;0.00;0.00;;;;;;;;;;5009748;28;20069;-84
2022/11/12 12:52:11;;;;;;;0.00;0.00;;;11.50;99.90;;;;;;5015942;28;20068;-84
2022/11/12 12:54:55;;;;;;;0.00;0.00;;;11.60;99.90;;;;;;5015076;28;20075;-85
2022/11/12 12:57:35;;;;;;;0.00;0.00;;;11.60;99.90;;;;;;5032298;28;20046;-86
2022/11/12 13:00:35;;;;;;;0.00;0.00;;;11.60;99.90;;;;;;5013102;28;20140;-86
2022/11/12 13:03:02;;;;;;;;;;;11.60;99.90;;;;;;4972774;28;20842;-86
2022/11/12 13:05:31;;;;;;;0.00;0.00;;;11.40;99.90;;;;;;5014273;28;20020;-84
2022/11/12 13:08:03;;;;;;;0.05;0.05;;;11.40;99.90;;;;;;5027106;28;20526;-84
2022/11/12 13:10:50;;;;;;;0.00;0.00;;;11.40;99.90;;;;;;5012173;28;20523;-85
2022/11/12 13:13:32;;;;;;;0.00;0.00;;;11.50;99.90;;;;;;5014606;28;20894;-84
2022/11/12 13:16:00;;;;;;;0.00;0.00;;;11.40;99.90;;;;;;5012215;28;20034;-85
2022/11/12 13:18:55;;;;;;;0.00;0.00;;;11.40;99.90;;;;;;5027735;28;20128;-84
2022/11/12 13:21:23;;;;;;;0.00;0.00;;;;;;;;;;5021586;28;20057;-85
2022/11/12 13:24:07;;;;;;;0.00;0.00;;;11.50;99.90;;;;;;5036205;28;20045;-85
2022/11/12 13:26:56;;;;;;;0.10;0.10;;;11.40;99.90;;;;;;5029233;28;20046;-84
2022/11/12 13:29:39;;;;;;;0.00;0.00;;;11.50;99.90;;;;;;5034533;28;20120;-85
2022/11/12 13:32:33;;;;;;;0.00;0.00;;;13.80;99.90;;;;;;5013987;28;20088;-84
2022/11/12 13:35:20;;;;;;;0.00;0.00;;;11.50;99.90;;;;;;5025637;28;20121;-84
2022/11/12 13:37:50;;;;;;;0.10;0.10;;;11.50;99.90;;;;;;5031954;28;20053;-85
2022/11/12 13:40:24;;;;;;;0.00;0.00;;;11.50;99.90;;;;;;5030161;28;20463;-85
2022/11/12 13:42:51;;;;;;;0.00;0.00;;;11.50;99.90;;;;;;5010213;28;20051;-84
2022/11/12 13:45:22;;;;;;;0.00;0.00;;;11.50;99.90;;;;;;5012066;28;20136;-85
2022/11/12 13:47:49;;;;;;;0.00;0.00;;;;;;;;;;5019848;28;20515;-86
2022/11/12 13:50:21;;;;;;;0.00;0.00;;;11.50;99.90;;;;;;5014774;28;20551;-85
2022/11/12 13:52:48;;;;;;;0.00;0.00;;;11.50;99.90;;;;;;5028300;28;20077;-85
2022/11/12 13:55:18;;;;;;;0.00;0.00;;;11.60;99.90;;;;;;5036097;28;20072;-86
2022/11/12 13:57:48;;;;;;;0.00;0.00;;;11.50;99.90;;;;;;5028981;28;20038;-86
2022/11/12 14:00:27;;;;;;;0.00;0.00;;;11.60;99.90;;;;;;5011379;28;20092;-86
2022/11/12 14:02:57;;;;;;;0.00;0.00;;;11.50;99.90;;;;;;5009409;28;20466;-84
2022/11/12 14:05:26;;;;;;;0.00;0.00;;;11.50;99.90;;;;;;5012599;28;20133;-87
2022/11/12 14:08:25;;;;;;;0.00;0.00;;;11.50;99.90;;;;;;5012350;28;20037;-86
2022/11/12 14:11:06;;;;;;;0.00;0.00;;;11.50;99.90;;;;;;5024286;28;20064;-85
2022/11/12 14:13:53;;;;;;;0.00;0.00;;;11.50;99.90;;;;;;5019259;28;20500;-85
2022/11/12 14:16:40;;;;;;;0.00;0.00;;;11.50;99.90;;;;;;5009768;28;20079;-84
2022/11/12 14:19:51;;;;;;;0.00;0.00;;;12.50;99.90;;;;;;5012336;28;20045;-85
2022/11/12 14:22:20;;;;;;;0.00;0.00;;;11.40;99.90;;;;;;5009716;28;20521;-85
2022/11/12 14:24:51;;;;;;;0.00;0.00;;;11.40;99.90;;;;;;5009737;28;20045;-86
2022/11/12 14:27:33;;;;;;;0.00;0.00;;;11.40;99.90;;;;;;5025052;28;20041;-87
2022/11/12 14:30:14;;;;;;;0.00;0.00;;;11.40;99.90;;;;;;5023842;28;20048;-86
2022/11/12 14:32:43;;;;;;;0.08;0.08;;;11.30;99.90;;;;;;5025068;28;20603;-85
2022/11/12 14:35:32;;;;;;;0.00;0.00;;;11.30;99.90;;;;;;5014093;28;20466;-85